sensor_id;sensor_type;location;lat;lon;timestamp;pressure;altitude;pressure_sealevel;temperature;humidity
60489;BME280;46331;49.252;8.904;2023-02-28T00:00:24;100628.53;;;-1.13;64.27
60489;BME280;46331;49.252;8.904;2023-02-28T00:01:05;100628.81;;;-1.16;64.13
60489;BME280;46331;49.252;8.904;2023-02-28T00:01:45;100630.47;;;-1.24;64.93
60489;BME280;46331;49.252;8.904;2023-02-28T00:02:26;100630.34;;;-1.23;64.59
60489;BME280;46331;49.252;8.904;2023-02-28T00:03:06;100629.63;;;-1.25;64.76
60489;BME280;46331;49.252;8.904;2023-02-28T00:03:47;100621.97;;;-1.27;64.60
60489;BME280;46331;49.252;8.904;2023-02-28T00:04:28;100628.16;;;-1.28;64.57
60489;BME280;46331;49.252;8.904;2023-02-28T00:05:10;100631.84;;;-1.30;64.80
60489;BME280;46331;49.252;8.904;2023-02-28T00:05:51;100629.50;;;-1.33;64.65
60489;BME280;46331;49.252;8.904;2023-02-28T00:06:31;100626.25;;;-1.35;65.11
60489;BME280;46331;49.252;8.904;2023-02-28T00:07:12;100628.44;;;-1.31;64.90
60489;BME280;46331;49.252;8.904;2023-02-28T00:07:53;100626.63;;;-1.30;64.72
60489;BME280;46331;49.252;8.904;2023-02-28T00:08:33;100626.91;;;-1.33;65.14
60489;BME280;46331;49.252;8.904;2023-02-28T00:09:14;100625.25;;;-1.34;65.28
60489;BME280;46331;49.252;8.904;2023-02-28T00:09:54;100625.41;;;-1.36;65.22
60489;BME280;46331;49.252;8.904;2023-02-28T00:10:35;100635.00;;;-1.36;65.37
60489;BME280;46331;49.252;8.904;2023-02-28T00:11:16;100631.84;;;-1.40;65.48
60489;BME280;46331;49.252;8.904;2023-02-28T00:11:57;100626.78;;;-1.41;65.81
60489;BME280;46331;49.252;8.904;2023-02-28T00:12:38;100617.72;;;-1.37;65.81
60489;BME280;46331;49.252;8.904;2023-02-28T00:13:19;100620.88;;;-1.44;65.69
60489;BME280;46331;49.252;8.904;2023-02-28T00:13:59;100619.09;;;-1.33;66.17
60489;BME280;46331;49.252;8.904;2023-02-28T00:14:40;100623.34;;;-1.32;65.61
60489;BME280;46331;49.252;8.904;2023-02-28T00:15:21;100620.75;;;-1.32;65.77
60489;BME280;46331;49.252;8.904;2023-02-28T00:16:06;100625.25;;;-1.34;65.86
60489;BME280;46331;49.252;8.904;2023-02-28T00:16:47;100621.03;;;-1.35;66.02
60489;BME280;46331;49.252;8.904;2023-02-28T00:17:28;100621.03;;;-1.35;65.84
60489;BME280;46331;49.252;8.904;2023-02-28T00:18:08;100627.59;;;-1.41;65.92
60489;BME280;46331;49.252;8.904;2023-02-28T00:18:49;100621.31;;;-1.38;65.71
60489;BME280;46331;49.252;8.904;2023-02-28T00:19:30;100625.53;;;-1.37;66.07
60489;BME280;46331;49.252;8.904;2023-02-28T00:20:11;100630.06;;;-1.39;65.96
60489;BME280;46331;49.252;8.904;2023-02-28T00:20:52;100630.19;;;-1.41;66.30
60489;BME280;46331;49.252;8.904;2023-02-28T00:21:33;100631.72;;;-1.38;65.74
60489;BME280;46331;49.252;8.904;2023-02-28T00:22:15;100629.38;;;-1.41;66.17
60489;BME280;46331;49.252;8.904;2023-02-28T00:22:55;100618.97;;;-1.41;66.10
60489;BME280;46331;49.252;8.904;2023-02-28T00:23:36;100625.28;;;-1.44;66.08
60489;BME280;46331;49.252;8.904;2023-02-28T00:24:16;100629.66;;;-1.45;66.10
60489;BME280;46331;49.252;8.904;2023-02-28T00:24:57;100628.94;;;-1.47;66.01
60489;BME280;46331;49.252;8.904;2023-02-28T00:25:37;100627.59;;;-1.51;65.88
60489;BME280;46331;49.252;8.904;2023-02-28T00:26:18;100625.13;;;-1.52;66.87
60489;BME280;46331;49.252;8.904;2023-02-28T00:26:59;100628.28;;;-1.49;66.59
60489;BME280;46331;49.252;8.904;2023-02-28T00:27:40;100631.84;;;-1.40;66.05
60489;BME280;46331;49.252;8.904;2023-02-28T00:28:21;100621.16;;;-1.47;66.11
60489;BME280;46331;49.252;8.904;2023-02-28T00:29:02;100621.31;;;-1.38;66.18
60489;BME280;46331;49.252;8.904;2023-02-28T00:29:42;100620.06;;;-1.34;66.38
60489;BME280;46331;49.252;8.904;2023-02-28T00:30:24;100623.63;;;-1.35;65.86
60489;BME280;46331;49.252;8.904;2023-02-28T00:31:05;100626.09;;;-1.34;65.47
60489;BME280;46331;49.252;8.904;2023-02-28T00:31:46;100622.78;;;-1.36;66.06
60489;BME280;46331;49.252;8.904;2023-02-28T00:32:26;100620.31;;;-1.37;66.04
60489;BME280;46331;49.252;8.904;2023-02-28T00:33:07;100623.78;;;-1.37;65.96
60489;BME280;46331;49.252;8.904;2023-02-28T00:33:47;100618.97;;;-1.41;66.39
60489;BME280;46331;49.252;8.904;2023-02-28T00:34:28;100617.31;;;-1.42;66.31
60489;BME280;46331;49.252;8.904;2023-02-28T00:35:10;100630.47;;;-1.44;66.20
60489;BME280;46331;49.252;8.904;2023-02-28T00:35:50;100624.44;;;-1.45;66.23
60489;BME280;46331;49.252;8.904;2023-02-28T00:36:31;100621.72;;;-1.43;66.69
60489;BME280;46331;49.252;8.904;2023-02-28T00:37:12;100627.19;;;-1.46;66.57
60489;BME280;46331;49.252;8.904;2023-02-28T00:37:52;100630.59;;;-1.46;66.09
60489;BME280;46331;49.252;8.904;2023-02-28T00:38:33;100623.06;;;-1.49;66.46
60489;BME280;46331;49.252;8.904;2023-02-28T00:39:15;100626.34;;;-1.47;66.45
60489;BME280;46331;49.252;8.904;2023-02-28T00:39:56;100626.78;;;-1.41;66.13
60489;BME280;46331;49.252;8.904;2023-02-28T00:40:36;100633.75;;;-1.42;66.50
60489;BME280;46331;49.252;8.904;2023-02-28T00:41:17;100628.69;;;-1.44;66.57
60489;BME280;46331;49.252;8.904;2023-02-28T00:41:58;100631.28;;;-1.44;66.68
60489;BME280;46331;49.252;8.904;2023-02-28T00:42:39;100630.59;;;-1.46;66.88
60489;BME280;46331;49.252;8.904;2023-02-28T00:43:21;100630.75;;;-1.47;66.36
60489;BME280;46331;49.252;8.904;2023-02-28T00:44:01;100626.78;;;-1.41;66.24
60489;BME280;46331;49.252;8.904;2023-02-28T00:44:42;100624.72;;;-1.38;66.35
60489;BME280;46331;49.252;8.904;2023-02-28T00:45:23;100625.00;;;-1.41;66.33
60489;BME280;46331;49.252;8.904;2023-02-28T00:46:04;100630.47;;;-1.44;66.58
60489;BME280;46331;49.252;8.904;2023-02-28T00:46:44;100630.34;;;-1.42;66.54
60489;BME280;46331;49.252;8.904;2023-02-28T00:47:25;100625.00;;;-1.41;66.51
60489;BME280;46331;49.252;8.904;2023-02-28T00:48:06;100628.81;;;-1.45;66.49
60489;BME280;46331;49.252;8.904;2023-02-28T00:48:46;100633.88;;;-1.44;66.17
60489;BME280;46331;49.252;8.904;2023-02-28T00:49:28;100631.16;;;-1.42;67.00
60489;BME280;46331;49.252;8.904;2023-02-28T00:50:09;100628.53;;;-1.42;66.77
60489;BME280;46331;49.252;8.904;2023-02-28T00:50:51;100625.41;;;-1.46;66.82
60489;BME280;46331;49.252;8.904;2023-02-28T00:51:31;100619.38;;;-1.46;66.79
60489;BME280;46331;49.252;8.904;2023-02-28T00:52:12;100627.88;;;-1.44;67.34
60489;BME280;46331;49.252;8.904;2023-02-28T00:52:52;100622.41;;;-1.41;66.75
60489;BME280;46331;49.252;8.904;2023-02-28T00:53:34;100623.34;;;-1.42;66.70
60489;BME280;46331;49.252;8.904;2023-02-28T00:54:15;100619.78;;;-1.41;66.98
60489;BME280;46331;49.252;8.904;2023-02-28T00:54:55;100626.91;;;-1.43;66.80
60489;BME280;46331;49.252;8.904;2023-02-28T00:55:36;100617.59;;;-1.36;66.95
60489;BME280;46331;49.252;8.904;2023-02-28T00:56:18;100615.94;;;-1.27;66.63
60489;BME280;46331;49.252;8.904;2023-02-28T00:56:59;100614.03;;;-1.25;66.65
60489;BME280;46331;49.252;8.904;2023-02-28T00:57:39;100622.94;;;-1.28;65.98
60489;BME280;46331;49.252;8.904;2023-02-28T00:58:20;100625.28;;;-1.24;66.58
60489;BME280;46331;49.252;8.904;2023-02-28T00:59:00;100623.34;;;-1.22;66.36
60489;BME280;46331;49.252;8.904;2023-02-28T00:59:41;100621.56;;;-1.32;66.61
60489;BME280;46331;49.252;8.904;2023-02-28T01:00:22;100620.75;;;-1.32;66.73
60489;BME280;46331;49.252;8.904;2023-02-28T01:01:04;100617.88;;;-1.29;66.34
60489;BME280;46331;49.252;8.904;2023-02-28T01:01:46;100621.72;;;-1.33;66.64
60489;BME280;46331;49.252;8.904;2023-02-28T01:02:26;100624.44;;;-1.35;66.50
60489;BME280;46331;49.252;8.904;2023-02-28T01:03:07;100626.38;;;-1.37;66.38
60489;BME280;46331;49.252;8.904;2023-02-28T01:03:47;100623.63;;;-1.35;66.82
60489;BME280;46331;49.252;8.904;2023-02-28T01:04:28;100629.38;;;-1.41;66.64
60489;BME280;46331;49.252;8.904;2023-02-28T01:05:08;100615.56;;;-1.32;66.95
60489;BME280;46331;49.252;8.904;2023-02-28T01:05:49;100628.00;;;-1.26;66.37
60489;BME280;46331;49.252;8.904;2023-02-28T01:06:31;100619.50;;;-1.28;66.46
60489;BME280;46331;49.252;8.904;2023-02-28T01:07:11;100620.88;;;-1.24;66.32
60489;BME280;46331;49.252;8.904;2023-02-28T01:07:53;100624.16;;;-1.22;66.31
60489;BME280;46331;49.252;8.904;2023-02-28T01:08:34;100620.34;;;-1.18;66.14
60489;BME280;46331;49.252;8.904;2023-02-28T01:09:14;100624.16;;;-1.22;66.22
60489;BME280;46331;49.252;8.904;2023-02-28T01:09:59;100616.34;;;-1.22;66.42
60489;BME280;46331;49.252;8.904;2023-02-28T01:10:39;100628.28;;;-1.19;66.30
60489;BME280;46331;49.252;8.904;2023-02-28T01:11:21;100617.34;;;-1.23;66.05
60489;BME280;46331;49.252;8.904;2023-02-28T01:12:02;100615.69;;;-1.24;66.43
60489;BME280;46331;49.252;8.904;2023-02-28T01:12:43;100621.97;;;-1.27;66.26
60489;BME280;46331;49.252;8.904;2023-02-28T01:13:23;100624.72;;;-1.28;66.41
60489;BME280;46331;49.252;8.904;2023-02-28T01:14:05;100619.94;;;-1.23;66.48
60489;BME280;46331;49.252;8.904;2023-02-28T01:14:46;100612.81;;;-1.31;66.50
60489;BME280;46331;49.252;8.904;2023-02-28T01:15:26;100618.03;;;-1.31;66.81
60489;BME280;46331;49.252;8.904;2023-02-28T01:16:07;100621.69;;;-1.23;66.73
60489;BME280;46331;49.252;8.904;2023-02-28T01:16:49;100625.00;;;-1.21;66.83
60489;BME280;46331;49.252;8.904;2023-02-28T01:17:29;100622.25;;;-1.20;66.38
60489;BME280;46331;49.252;8.904;2023-02-28T01:18:10;100617.19;;;-1.21;66.27
60489;BME280;46331;49.252;8.904;2023-02-28T01:18:51;100614.88;;;-1.24;66.45
60489;BME280;46331;49.252;8.904;2023-02-28T01:19:32;100617.88;;;-1.19;66.60
60489;BME280;46331;49.252;8.904;2023-02-28T01:20:13;100617.19;;;-1.12;66.40
60489;BME280;46331;49.252;8.904;2023-02-28T01:20:54;100618.81;;;-1.11;65.99
60489;BME280;46331;49.252;8.904;2023-02-28T01:21:35;100613.91;;;-1.14;66.15
60489;BME280;46331;49.252;8.904;2023-02-28T01:22:16;100617.44;;;-1.15;66.20
60489;BME280;46331;49.252;8.904;2023-02-28T01:22:56;100615.13;;;-1.18;66.47
60489;BME280;46331;49.252;8.904;2023-02-28T01:23:38;100615.69;;;-1.24;66.35
60489;BME280;46331;49.252;8.904;2023-02-28T01:24:19;100607.19;;;-1.26;66.79
60489;BME280;46331;49.252;8.904;2023-02-28T01:24:59;100611.56;;;-1.27;66.28
60489;BME280;46331;49.252;8.904;2023-02-28T01:25:40;100616.91;;;-1.28;66.52
60489;BME280;46331;49.252;8.904;2023-02-28T01:26:22;100616.38;;;-1.32;66.46
60489;BME280;46331;49.252;8.904;2023-02-28T01:27:02;100617.31;;;-1.33;67.01
60489;BME280;46331;49.252;8.904;2023-02-28T01:27:43;100611.97;;;-1.31;66.71
60489;BME280;46331;49.252;8.904;2023-02-28T01:28:23;100611.56;;;-1.36;66.64
60489;BME280;46331;49.252;8.904;2023-02-28T01:29:04;100617.06;;;-1.39;67.30
60489;BME280;46331;49.252;8.904;2023-02-28T01:29:45;100618.44;;;-1.35;67.27
60489;BME280;46331;49.252;8.904;2023-02-28T01:30:25;100620.06;;;-1.34;66.91
60489;BME280;46331;49.252;8.904;2023-02-28T01:31:06;100614.19;;;-1.36;66.98
60489;BME280;46331;49.252;8.904;2023-02-28T01:31:47;100623.50;;;-1.34;66.87
60489;BME280;46331;49.252;8.904;2023-02-28T01:32:28;100621.16;;;-1.37;66.75
60489;BME280;46331;49.252;8.904;2023-02-28T01:33:09;100619.25;;;-1.35;66.99
60489;BME280;46331;49.252;8.904;2023-02-28T01:33:50;100623.91;;;-1.38;66.77
60489;BME280;46331;49.252;8.904;2023-02-28T01:34:31;100620.47;;;-1.39;67.13
60489;BME280;46331;49.252;8.904;2023-02-28T01:35:11;100626.78;;;-1.41;67.16
60489;BME280;46331;49.252;8.904;2023-02-28T01:36:03;100623.63;;;-1.45;67.17
60489;BME280;46331;49.252;8.904;2023-02-28T01:36:43;100618.41;;;-1.45;67.33
60489;BME280;46331;49.252;8.904;2023-02-28T01:37:24;100616.50;;;-1.43;67.02
60489;BME280;46331;49.252;8.904;2023-02-28T01:38:05;100618.28;;;-1.44;67.33
60489;BME280;46331;49.252;8.904;2023-02-28T01:38:46;100618.69;;;-1.48;67.39
60489;BME280;46331;49.252;8.904;2023-02-28T01:39:27;100618.69;;;-1.38;67.38
60489;BME280;46331;49.252;8.904;2023-02-28T01:40:08;100617.06;;;-1.39;67.37
60489;BME280;46331;49.252;8.904;2023-02-28T01:40:49;100622.53;;;-1.42;67.28
60489;BME280;46331;49.252;8.904;2023-02-28T01:41:33;100616.66;;;-1.45;67.82
60489;BME280;46331;49.252;8.904;2023-02-28T01:42:14;100611.44;;;-1.45;67.44
60489;BME280;46331;49.252;8.904;2023-02-28T01:42:55;100615.66;;;-1.44;68.16
60489;BME280;46331;49.252;8.904;2023-02-28T01:44:54;100616.50;;;-1.43;67.50
60489;BME280;46331;49.252;8.904;2023-02-28T01:45:35;100615.41;;;-1.40;67.38
60489;BME280;46331;49.252;8.904;2023-02-28T01:46:17;100617.31;;;-1.42;67.28
60489;BME280;46331;49.252;8.904;2023-02-28T01:46:57;100617.72;;;-1.47;67.62
60489;BME280;46331;49.252;8.904;2023-02-28T01:47:43;100615.00;;;-1.46;67.68
60489;BME280;46331;49.252;8.904;2023-02-28T01:48:36;100624.72;;;-1.48;67.62
60489;BME280;46331;49.252;8.904;2023-02-28T01:49:19;100619.66;;;-1.49;67.77
60489;BME280;46331;49.252;8.904;2023-02-28T01:50:02;100616.22;;;-1.50;67.36
60489;BME280;46331;49.252;8.904;2023-02-28T01:50:46;100616.75;;;-1.56;67.88
60489;BME280;46331;49.252;8.904;2023-02-28T01:51:49;100611.00;;;-1.50;68.04
60489;BME280;46331;49.252;8.904;2023-02-28T01:52:35;100610.47;;;-1.44;67.74
60489;BME280;46331;49.252;8.904;2023-02-28T01:53:21;100611.16;;;-1.41;67.24
60489;BME280;46331;49.252;8.904;2023-02-28T01:54:09;100612.25;;;-1.44;67.24
60489;BME280;46331;49.252;8.904;2023-02-28T01:54:55;100604.72;;;-1.47;67.62
60489;BME280;46331;49.252;8.904;2023-02-28T01:55:37;100615.94;;;-1.47;67.45
60489;BME280;46331;49.252;8.904;2023-02-28T01:56:23;100606.09;;;-1.53;67.85
60489;BME280;46331;49.252;8.904;2023-02-28T01:57:09;100599.00;;;-1.51;68.00
60489;BME280;46331;49.252;8.904;2023-02-28T01:57:56;100604.19;;;-1.51;67.71
60489;BME280;46331;49.252;8.904;2023-02-28T01:58:39;100598.16;;;-1.51;67.87
60489;BME280;46331;49.252;8.904;2023-02-28T01:59:45;100604.06;;;-1.49;67.84
60489;BME280;46331;49.252;8.904;2023-02-28T02:00:27;100600.88;;;-1.53;67.63
60489;BME280;46331;49.252;8.904;2023-02-28T02:01:09;100609.81;;;-1.55;67.75
60489;BME280;46331;49.252;8.904;2023-02-28T02:01:49;100604.72;;;-1.57;67.76
60489;BME280;46331;49.252;8.904;2023-02-28T02:02:30;100611.84;;;-1.59;67.57
60489;BME280;46331;49.252;8.904;2023-02-28T02:03:13;100604.16;;;-1.60;67.41
60489;BME280;46331;49.252;8.904;2023-02-28T02:04:00;100600.88;;;-1.63;67.78
60489;BME280;46331;49.252;8.904;2023-02-28T02:04:51;100609.09;;;-1.67;68.53
60489;BME280;46331;49.252;8.904;2023-02-28T02:05:34;100614.16;;;-1.66;68.61
60489;BME280;46331;49.252;8.904;2023-02-28T02:06:16;100598.69;;;-1.67;68.35
60489;BME280;46331;49.252;8.904;2023-02-28T02:07:00;100609.50;;;-1.62;68.29
60489;BME280;46331;49.252;8.904;2023-02-28T02:07:43;100600.47;;;-1.58;68.00
60489;BME280;46331;49.252;8.904;2023-02-28T02:08:26;100601.44;;;-1.59;67.69
60489;BME280;46331;49.252;8.904;2023-02-28T02:09:08;100599.09;;;-1.62;68.09
60489;BME280;46331;49.252;8.904;2023-02-28T02:09:48;100604.97;;;-1.70;68.01
60489;BME280;46331;49.252;8.904;2023-02-28T02:10:33;100599.81;;;-1.60;67.92
60489;BME280;46331;49.252;8.904;2023-02-28T02:11:17;100597.06;;;-1.58;67.76
60489;BME280;46331;49.252;8.904;2023-02-28T02:12:10;100604.44;;;-1.64;68.18
60489;BME280;46331;49.252;8.904;2023-02-28T02:15:12;100606.63;;;-1.69;67.89
60489;BME280;46331;49.252;8.904;2023-02-28T02:17:38;100603.06;;;-1.77;68.31
60489;BME280;46331;49.252;8.904;2023-02-28T02:18:41;100602.91;;;-1.76;68.62
60489;BME280;46331;49.252;8.904;2023-02-28T02:19:46;100597.59;;;-1.74;68.41
60489;BME280;46331;49.252;8.904;2023-02-28T02:20:46;100590.91;;;-1.77;68.26
60489;BME280;46331;49.252;8.904;2023-02-28T02:30:37;100596.50;;;-1.72;69.00
60489;BME280;46331;49.252;8.904;2023-02-28T02:31:57;100596.78;;;-1.75;68.89
60489;BME280;46331;49.252;8.904;2023-02-28T02:35:54;100597.44;;;-1.83;69.03
60489;BME280;46331;49.252;8.904;2023-02-28T02:36:42;100591.97;;;-1.80;68.68
60489;BME280;46331;49.252;8.904;2023-02-28T02:40:11;100587.31;;;-1.76;68.52
60489;BME280;46331;49.252;8.904;2023-02-28T02:41:06;100587.44;;;-1.77;68.50
60489;BME280;46331;49.252;8.904;2023-02-28T02:41:53;100583.63;;;-1.83;68.42
60489;BME280;46331;49.252;8.904;2023-02-28T02:42:42;100587.19;;;-1.84;69.22
60489;BME280;46331;49.252;8.904;2023-02-28T02:44:42;100585.25;;;-1.82;68.54
60489;BME280;46331;49.252;8.904;2023-02-28T02:46:17;100588.97;;;-1.85;68.81
60489;BME280;46331;49.252;8.904;2023-02-28T02:47:09;100589.38;;;-1.80;69.10
60489;BME280;46331;49.252;8.904;2023-02-28T02:47:51;100585.84;;;-1.78;68.76
60489;BME280;46331;49.252;8.904;2023-02-28T02:48:34;100584.44;;;-1.83;68.63
60489;BME280;46331;49.252;8.904;2023-02-28T02:49:21;100590.31;;;-1.81;68.46
60489;BME280;46331;49.252;8.904;2023-02-28T02:50:08;100583.63;;;-1.83;68.74
60489;BME280;46331;49.252;8.904;2023-02-28T02:50:57;100591.44;;;-1.83;68.46
60489;BME280;46331;49.252;8.904;2023-02-28T02:51:40;100581.31;;;-1.86;68.67
60489;BME280;46331;49.252;8.904;2023-02-28T02:52:25;100585.13;;;-1.90;69.16
60489;BME280;46331;49.252;8.904;2023-02-28T02:53:10;100588.00;;;-1.93;68.40
60489;BME280;46331;49.252;8.904;2023-02-28T02:54:00;100581.00;;;-1.93;69.19
60489;BME280;46331;49.252;8.904;2023-02-28T02:54:44;100587.19;;;-1.94;68.97
60489;BME280;46331;49.252;8.904;2023-02-28T02:55:26;100580.31;;;-1.95;69.12
60489;BME280;46331;49.252;8.904;2023-02-28T02:56:08;100585.78;;;-1.98;69.44
60489;BME280;46331;49.252;8.904;2023-02-28T02:56:50;100590.03;;;-1.97;68.97
60489;BME280;46331;49.252;8.904;2023-02-28T02:57:36;100587.44;;;-1.97;69.13
60489;BME280;46331;49.252;8.904;2023-02-28T02:58:22;100583.19;;;-1.98;69.24
60489;BME280;46331;49.252;8.904;2023-02-28T02:59:07;100582.38;;;-1.99;69.04
60489;BME280;46331;49.252;8.904;2023-02-28T02:59:51;100587.00;;;-2.02;68.89
60489;BME280;46331;49.252;8.904;2023-02-28T03:00:37;100590.19;;;-1.99;69.46
60489;BME280;46331;49.252;8.904;2023-02-28T03:01:22;100587.72;;;-2.00;69.54
60489;BME280;46331;49.252;8.904;2023-02-28T03:02:14;100585.50;;;-2.05;69.24
60489;BME280;46331;49.252;8.904;2023-02-28T03:02:56;100585.38;;;-2.03;69.60
60489;BME280;46331;49.252;8.904;2023-02-28T03:03:38;100589.88;;;-2.05;69.67
60489;BME280;46331;49.252;8.904;2023-02-28T03:04:22;100587.13;;;-2.04;69.41
60489;BME280;46331;49.252;8.904;2023-02-28T03:05:08;100579.75;;;-2.08;69.54
60489;BME280;46331;49.252;8.904;2023-02-28T03:05:52;100587.41;;;-2.07;69.20
60489;BME280;46331;49.252;8.904;2023-02-28T03:06:33;100586.31;;;-2.14;69.75
60489;BME280;46331;49.252;8.904;2023-02-28T03:07:13;100588.25;;;-2.06;69.96
60489;BME280;46331;49.252;8.904;2023-02-28T03:07:55;100585.78;;;-2.08;69.94
60489;BME280;46331;49.252;8.904;2023-02-28T03:08:37;100588.13;;;-2.05;70.08
60489;BME280;46331;49.252;8.904;2023-02-28T03:09:18;100588.53;;;-2.00;69.43
60489;BME280;46331;49.252;8.904;2023-02-28T03:09:59;100583.19;;;-1.98;69.87
60489;BME280;46331;49.252;8.904;2023-02-28T03:10:41;100591.41;;;-1.93;69.60
60489;BME280;46331;49.252;8.904;2023-02-28T03:11:22;100592.91;;;-1.90;69.05
60489;BME280;46331;49.252;8.904;2023-02-28T03:12:03;100591.81;;;-1.98;69.07
60489;BME280;46331;49.252;8.904;2023-02-28T03:12:53;100594.13;;;-1.94;69.36
60489;BME280;46331;49.252;8.904;2023-02-28T03:13:49;100591.81;;;-1.98;69.29
60489;BME280;46331;49.252;8.904;2023-02-28T03:15:41;100590.03;;;-1.97;69.33
60489;BME280;46331;49.252;8.904;2023-02-28T03:18:10;100599.72;;;-1.99;69.30
60489;BME280;46331;49.252;8.904;2023-02-28T03:20:36;100598.91;;;-2.00;69.54
60489;BME280;46331;49.252;8.904;2023-02-28T03:21:28;100591.25;;;-2.01;69.50
60489;BME280;46331;49.252;8.904;2023-02-28T03:23:33;100593.72;;;-2.00;69.17
60489;BME280;46331;49.252;8.904;2023-02-28T03:24:31;100598.91;;;-2.00;69.42
60489;BME280;46331;49.252;8.904;2023-02-28T03:25:33;100592.78;;;-1.99;69.26
60489;BME280;46331;49.252;8.904;2023-02-28T03:26:22;100597.13;;;-1.99;69.27
60489;BME280;46331;49.252;8.904;2023-02-28T03:27:08;100599.19;;;-2.03;69.54
60489;BME280;46331;49.252;8.904;2023-02-28T03:28:04;100595.19;;;-2.07;69.51
60489;BME280;46331;49.252;8.904;2023-02-28T03:29:51;100602.59;;;-2.02;69.49
60489;BME280;46331;49.252;8.904;2023-02-28T03:30:44;100596.44;;;-2.01;69.24
60489;BME280;46331;49.252;8.904;2023-02-28T03:31:33;100593.59;;;-1.98;69.04
60489;BME280;46331;49.252;8.904;2023-02-28T03:32:21;100607.25;;;-1.96;69.41
60489;BME280;46331;49.252;8.904;2023-02-28T03:33:11;100593.72;;;-2.00;69.31
60489;BME280;46331;49.252;8.904;2023-02-28T03:34:01;100586.59;;;-1.98;69.04
60489;BME280;46331;49.252;8.904;2023-02-28T03:34:49;100603.56;;;-2.03;69.64
60489;BME280;46331;49.252;8.904;2023-02-28T03:35:35;100592.34;;;-2.04;69.37
60489;BME280;46331;49.252;8.904;2023-02-28T03:36:19;100600.84;;;-2.02;69.35
60489;BME280;46331;49.252;8.904;2023-02-28T03:37:10;100595.78;;;-2.03;69.49
60489;BME280;46331;49.252;8.904;2023-02-28T03:37:55;100592.19;;;-2.02;69.63
60489;BME280;46331;49.252;8.904;2023-02-28T03:39:37;100596.59;;;-2.03;69.30
60489;BME280;46331;49.252;8.904;2023-02-28T03:40:23;100599.31;;;-2.04;69.17
60489;BME280;46331;49.252;8.904;2023-02-28T03:41:16;100599.59;;;-2.07;69.44
60489;BME280;46331;49.252;8.904;2023-02-28T03:42:00;100595.59;;;-2.11;69.33
60489;BME280;46331;49.252;8.904;2023-02-28T03:42:46;100596.84;;;-2.16;69.86
60489;BME280;46331;49.252;8.904;2023-02-28T03:43:32;100589.59;;;-2.12;69.82
60489;BME280;46331;49.252;8.904;2023-02-28T03:44:38;100593.13;;;-2.13;69.43
60489;BME280;46331;49.252;8.904;2023-02-28T03:45:22;100593.41;;;-2.16;69.86
60489;BME280;46331;49.252;8.904;2023-02-28T03:46:08;100600.78;;;-2.11;69.89
60489;BME280;46331;49.252;8.904;2023-02-28T03:46:57;100589.72;;;-2.13;69.95
60489;BME280;46331;49.252;8.904;2023-02-28T03:48:32;100597.38;;;-2.12;70.64
60489;BME280;46331;49.252;8.904;2023-02-28T03:49:19;100595.47;;;-2.10;70.93
60489;BME280;46331;49.252;8.904;2023-02-28T03:50:14;100590.41;;;-2.11;71.10
60489;BME280;46331;49.252;8.904;2023-02-28T03:50:59;100593.44;;;-2.06;70.40
60489;BME280;46331;49.252;8.904;2023-02-28T03:51:41;100584.41;;;-2.02;70.30
60489;BME280;46331;49.252;8.904;2023-02-28T03:52:27;100597.84;;;-1.97;69.97
60489;BME280;46331;49.252;8.904;2023-02-28T03:53:20;100597.84;;;-1.97;70.23
60489;BME280;46331;49.252;8.904;2023-02-28T03:54:07;100591.94;;;-1.99;70.63
60489;BME280;46331;49.252;8.904;2023-02-28T03:54:53;100593.31;;;-1.95;70.11
60489;BME280;46331;49.252;8.904;2023-02-28T03:55:38;100589.06;;;-1.96;70.10
60489;BME280;46331;49.252;8.904;2023-02-28T03:56:21;100593.44;;;-1.96;70.31
60489;BME280;46331;49.252;8.904;2023-02-28T03:57:10;100592.50;;;-1.95;69.85
60489;BME280;46331;49.252;8.904;2023-02-28T03:58:00;100584.72;;;-1.95;69.99
60489;BME280;46331;49.252;8.904;2023-02-28T04:00:20;100589.25;;;-1.88;69.62
60489;BME280;46331;49.252;8.904;2023-02-28T04:01:12;100590.31;;;-1.90;69.63
60489;BME280;46331;49.252;8.904;2023-02-28T04:01:53;100592.91;;;-1.90;69.38
60489;BME280;46331;49.252;8.904;2023-02-28T04:02:35;100598.78;;;-1.88;69.35
60489;BME280;46331;49.252;8.904;2023-02-28T04:03:17;100595.38;;;-1.89;69.65
60489;BME280;46331;49.252;8.904;2023-02-28T04:03:57;100592.66;;;-1.87;69.46
60489;BME280;46331;49.252;8.904;2023-02-28T04:04:38;100596.06;;;-1.87;69.50
60489;BME280;46331;49.252;8.904;2023-02-28T04:05:20;100597.44;;;-1.83;68.90
60489;BME280;46331;49.252;8.904;2023-02-28T04:06:01;100595.53;;;-1.81;69.53
60489;BME280;46331;49.252;8.904;2023-02-28T04:06:42;100596.50;;;-1.82;69.05
60489;BME280;46331;49.252;8.904;2023-02-28T04:07:23;100591.28;;;-1.82;69.12
60489;BME280;46331;49.252;8.904;2023-02-28T04:08:05;100595.66;;;-1.82;69.34
60489;BME280;46331;49.252;8.904;2023-02-28T04:08:46;100595.66;;;-1.82;69.52
60489;BME280;46331;49.252;8.904;2023-02-28T04:09:27;100597.56;;;-1.84;69.23
60489;BME280;46331;49.252;8.904;2023-02-28T04:10:09;100597.03;;;-1.78;69.22
60489;BME280;46331;49.252;8.904;2023-02-28T04:10:55;100599.38;;;-1.75;69.08
60489;BME280;46331;49.252;8.904;2023-02-28T04:12:20;100598.97;;;-1.70;68.91
60489;BME280;46331;49.252;8.904;2023-02-28T04:13:03;100588.69;;;-1.72;68.94
60489;BME280;46331;49.252;8.904;2023-02-28T04:13:43;100597.03;;;-1.68;69.11
60489;BME280;46331;49.252;8.904;2023-02-28T04:14:24;100599.22;;;-1.64;68.97
60489;BME280;46331;49.252;8.904;2023-02-28T04:15:05;100600.34;;;-1.66;68.89
60489;BME280;46331;49.252;8.904;2023-02-28T04:15:46;100596.50;;;-1.62;68.79
60489;BME280;46331;49.252;8.904;2023-02-28T04:16:26;100586.53;;;-1.57;68.24
60489;BME280;46331;49.252;8.904;2023-02-28T04:17:07;100593.50;;;-1.57;68.58
60489;BME280;46331;49.252;8.904;2023-02-28T04:17:48;100593.91;;;-1.52;68.54
60489;BME280;46331;49.252;8.904;2023-02-28T04:18:28;100594.59;;;-1.50;68.48
60489;BME280;46331;49.252;8.904;2023-02-28T04:19:10;100596.78;;;-1.46;68.37
60489;BME280;46331;49.252;8.904;2023-02-28T04:19:51;100595.97;;;-1.46;68.25
60489;BME280;46331;49.252;8.904;2023-02-28T04:20:32;100594.72;;;-1.42;68.64
60489;BME280;46331;49.252;8.904;2023-02-28T04:21:12;100596.50;;;-1.42;68.08